Time,TemperatureF,DewpointF,PressureIn,WindDirection,WindDirectionDegrees,WindSpeedMPH,WindSpeedGustMPH,Humidity,HourlyPrecipIn,Conditions,Clouds,dailyrainin,SoftwareType,DateUTC
2013-05-07 00:11:00,61.5,60.9,29.88,East,90,0.0,-999.0,98,-99.99,,,0.00,Acu-Link.com,2013-05-07 05:11:00,
2013-05-07 00:26:00,61.0,60.4,29.88,SSE,157,0.0,-999.0,98,-99.99,,,0.00,Acu-Link.com,2013-05-07 05:26:00,
2013-05-07 00:41:00,60.8,60.2,29.88,SE,135,0.0,-999.0,98,-99.99,,,0.00,Acu-Link.com,2013-05-07 05:41:00,
2013-05-07 00:56:00,60.4,59.8,29.88,SSE,157,0.0,-999.0,98,-99.99,,,0.00,Acu-Link.com,2013-05-07 05:56:00,
2013-05-07 01:11:00,60.3,59.7,29.87,East,90,0.0,-999.0,98,-99.99,,,0.00,Acu-Link.com,2013-05-07 06:11:00,
2013-05-07 01:27:00,60.1,59.5,29.87,East,90,0.0,-999.0,98,-99.99,,,0.00,Acu-Link.com,2013-05-07 06:27:00,
2013-05-07 01:42:00,59.7,59.1,29.87,East,90,0.0,-999.0,98,-99.99,,,0.00,Acu-Link.com,2013-05-07 06:42:00,
2013-05-07 01:57:00,59.2,58.6,29.86,East,90,0.0,-999.0,98,-99.99,,,0.00,Acu-Link.com,2013-05-07 06:57:00,
2013-05-07 02:12:00,59.2,58.6,29.86,East,90,0.0,-999.0,98,-99.99,,,0.00,Acu-Link.com,2013-05-07 07:12:00,
2013-05-07 02:27:00,58.8,58.2,29.86,East,90,0.0,-999.0,98,-99.99,,,0.00,Acu-Link.com,2013-05-07 07:27:00,
2013-05-07 02:42:00,58.6,58.0,29.86,ESE,112,0.0,-999.0,98,-99.99,,,0.00,Acu-Link.com,2013-05-07 07:42:00,
2013-05-07 02:57:00,58.5,57.9,29.86,SE,135,0.0,-999.0,98,-99.99,,,0.00,Acu-Link.com,2013-05-07 07:57:00,
2013-05-07 03:12:00,58.3,57.7,29.86,SE,135,0.0,-999.0,98,-99.99,,,0.00,Acu-Link.com,2013-05-07 08:12:00,
2013-05-07 03:28:00,58.3,57.7,29.86,SE,135,0.0,-999.0,98,-99.99,,,0.00,Acu-Link.com,2013-05-07 08:28:00,
2013-05-07 03:43:00,57.9,57.3,29.87,SE,135,0.0,-999.0,98,-99.99,,,0.00,Acu-Link.com,2013-05-07 08:43:00,
2013-05-07 03:58:00,57.7,57.1,29.87,SE,135,0.0,-999.0,98,-99.99,,,0.00,Acu-Link.com,2013-05-07 08:58:00,
2013-05-07 04:13:00,57.6,57.0,29.88,SE,135,0.0,-999.0,98,-99.99,,,0.00,Acu-Link.com,2013-05-07 09:13:00,
2013-05-07 04:28:00,57.6,57.0,29.88,SE,135,0.0,-999.0,98,-99.99,,,0.00,Acu-Link.com,2013-05-07 09:28:00,
2013-05-07 04:43:00,57.6,57.0,29.88,South,180,0.0,-999.0,98,-99.99,,,0.00,Acu-Link.com,2013-05-07 09:43:00,
2013-05-07 04:58:00,57.6,57.0,29.88,South,180,0.0,-999.0,98,-99.99,,,0.00,Acu-Link.com,2013-05-07 09:58:00,
2013-05-07 05:13:00,57.0,56.4,29.88,South,180,0.0,-999.0,98,-99.99,,,0.00,Acu-Link.com,2013-05-07 10:13:00,
2013-05-07 05:29:00,57.0,56.4,29.88,South,180,0.0,-999.0,98,-99.99,,,0.00,Acu-Link.com,2013-05-07 10:29:00,
2013-05-07 05:44:00,56.8,56.2,29.88,South,180,0.0,-999.0,98,-99.99,,,0.00,Acu-Link.com,2013-05-07 10:44:00,
2013-05-07 05:59:00,56.5,55.9,29.89,South,180,0.0,-999.0,98,-99.99,,,0.00,Acu-Link.com,2013-05-07 10:59:00,
2013-05-07 06:14:00,56.5,55.9,29.89,South,180,0.0,-999.0,98,-99.99,,,0.00,Acu-Link.com,2013-05-07 11:14:00,
2013-05-07 06:29:00,56.3,55.7,29.90,North,0,0.0,-999.0,98,-99.99,,,0.00,Acu-Link.com,2013-05-07 11:29:00,
2013-05-07 06:44:00,56.5,55.9,29.90,North,0,0.0,-999.0,98,-99.99,,,0.00,Acu-Link.com,2013-05-07 11:44:00,
2013-05-07 06:59:00,57.9,57.3,29.90,North,0,0.0,-999.0,98,-99.99,,,0.00,Acu-Link.com,2013-05-07 11:59:00,
2013-05-07 07:14:00,59.0,58.4,29.91,North,0,0.0,-999.0,98,-99.99,,,0.00,Acu-Link.com,2013-05-07 12:14:00,
2013-05-07 07:29:00,59.7,59.1,29.91,North,0,0.0,-999.0,98,-99.99,,,0.00,Acu-Link.com,2013-05-07 12:29:00,
2013-05-07 07:45:00,60.8,60.2,29.91,NNE,22,0.0,-999.0,98,-99.99,,,0.00,Acu-Link.com,2013-05-07 12:45:00,
2013-05-07 08:00:00,61.7,61.1,29.91,NW,315,0.0,-999.0,98,-99.99,,,0.00,Acu-Link.com,2013-05-07 13:00:00,
2013-05-07 08:15:00,62.4,61.8,29.91,NW,315,0.0,-999.0,98,-99.99,,,0.00,Acu-Link.com,2013-05-07 13:15:00,
2013-05-07 08:30:00,63.1,62.5,29.92,NW,315,0.0,-999.0,98,-99.99,,,0.00,Acu-Link.com,2013-05-07 13:30:00,
2013-05-07 08:45:00,63.7,63.1,29.93,WNW,292,1.1,-999.0,98,-99.99,,,0.00,Acu-Link.com,2013-05-07 13:45:00,
2013-05-07 09:00:00,66.4,65.8,29.93,South,180,1.7,-999.0,98,-99.99,,,0.00,Acu-Link.com,2013-05-07 14:00:00,
2013-05-07 09:15:00,69.1,68.5,29.93,South,180,0.0,-999.0,98,-99.99,,,0.00,Acu-Link.com,2013-05-07 14:15:00,
2013-05-07 09:30:00,70.0,69.4,29.94,South,180,2.7,-999.0,98,-99.99,,,0.00,Acu-Link.com,2013-05-07 14:30:00,
2013-05-07 09:45:00,70.7,68.9,29.94,SSE,157,2.2,-999.0,94,-99.99,,,0.00,Acu-Link.com,2013-05-07 14:45:00,
2013-05-07 10:01:00,71.6,67.5,29.94,SSW,202,2.2,-999.0,87,-99.99,,,0.00,Acu-Link.com,2013-05-07 15:01:00,
2013-05-07 10:16:00,72.7,67.2,29.94,ESE,112,0.0,-999.0,83,-99.99,,,0.00,Acu-Link.com,2013-05-07 15:16:00,
2013-05-07 10:31:00,74.3,67.7,29.94,ESE,112,0.0,-999.0,80,-99.99,,,0.00,Acu-Link.com,2013-05-07 15:31:00,
2013-05-07 10:46:00,75.6,69.0,29.94,NE,45,1.7,-999.0,80,-99.99,,,0.00,Acu-Link.com,2013-05-07 15:46:00,
2013-05-07 11:01:00,76.8,67.9,29.94,SSE,157,0.0,-999.0,74,-99.99,,,0.00,Acu-Link.com,2013-05-07 16:01:00,
2013-05-07 11:16:00,77.2,69.0,29.94,SSE,157,1.1,-999.0,76,-99.99,,,0.00,Acu-Link.com,2013-05-07 16:16:00,
2013-05-07 11:31:00,79.0,69.6,29.93,SSW,202,0.0,-999.0,73,-99.99,,,0.00,Acu-Link.com,2013-05-07 16:31:00,
2013-05-07 11:46:00,78.4,68.6,29.93,East,90,0.0,-999.0,72,-99.99,,,0.00,Acu-Link.com,2013-05-07 16:46:00,
2013-05-07 12:01:00,81.3,70.1,29.92,West,270,2.2,-999.0,69,-99.99,,,0.00,Acu-Link.com,2013-05-07 17:01:00,
2013-05-07 12:17:00,80.2,70.3,29.92,South,180,0.0,-999.0,72,-99.99,,,0.00,Acu-Link.com,2013-05-07 17:17:00,
2013-05-07 12:32:00,79.7,70.3,29.91,East,90,0.0,-999.0,73,-99.99,,,0.00,Acu-Link.com,2013-05-07 17:32:00,
2013-05-07 12:47:00,82.0,70.8,29.92,ENE,67,1.1,-999.0,69,-99.99,,,0.00,Acu-Link.com,2013-05-07 17:47:00,
2013-05-07 13:02:00,82.9,69.4,29.91,West,270,2.7,-999.0,64,-99.99,,,0.00,Acu-Link.com,2013-05-07 18:02:00,
2013-05-07 13:17:00,85.1,68.6,29.90,NW,315,3.2,-999.0,58,-99.99,,,0.00,Acu-Link.com,2013-05-07 18:17:00,
2013-05-07 13:32:00,82.6,66.3,29.90,East,90,2.7,-999.0,58,-99.99,,,0.00,Acu-Link.com,2013-05-07 18:32:00,
2013-05-07 13:47:00,83.3,68.4,29.89,West,270,3.2,-999.0,61,-99.99,,,0.00,Acu-Link.com,2013-05-07 18:47:00,
2013-05-07 14:02:00,84.7,69.2,29.89,West,270,2.2,-999.0,60,-99.99,,,0.00,Acu-Link.com,2013-05-07 19:02:00,
2013-05-07 14:17:00,84.7,69.2,29.88,WSW,247,3.2,-999.0,60,-99.99,,,0.00,Acu-Link.com,2013-05-07 19:17:00,
2013-05-07 14:33:00,86.4,72.3,29.88,West,270,3.2,-999.0,63,-99.99,,,0.00,Acu-Link.com,2013-05-07 19:33:00,
2013-05-07 14:48:00,84.4,69.9,29.87,WNW,292,4.7,-999.0,62,-99.99,,,0.00,Acu-Link.com,2013-05-07 19:48:00,
2013-05-07 15:03:00,83.1,69.6,29.87,West,270,0.0,-999.0,64,-99.99,,,0.00,Acu-Link.com,2013-05-07 20:03:00,
2013-05-07 15:18:00,82.8,68.4,29.86,WNW,292,1.1,-999.0,62,-99.99,,,0.00,Acu-Link.com,2013-05-07 20:18:00,
2013-05-07 15:33:00,82.2,69.2,29.86,ENE,67,4.2,-999.0,65,-99.99,,,0.00,Acu-Link.com,2013-05-07 20:33:00,
2013-05-07 15:48:00,85.8,70.3,29.86,WSW,247,2.7,-999.0,60,-99.99,,,0.00,Acu-Link.com,2013-05-07 20:48:00,
2013-05-07 16:03:00,84.6,69.6,29.86,SW,225,2.7,-999.0,61,-99.99,,,0.00,Acu-Link.com,2013-05-07 21:03:00,
2013-05-07 16:18:00,83.5,69.6,29.86,East,90,5.3,-999.0,63,-99.99,,,0.00,Acu-Link.com,2013-05-07 21:18:00,
2013-05-07 16:33:00,84.2,70.2,29.86,ENE,67,1.1,-999.0,63,-99.99,,,0.00,Acu-Link.com,2013-05-07 21:33:00,
2013-05-07 16:48:00,83.5,69.6,29.86,ENE,67,0.0,-999.0,63,-99.99,,,0.00,Acu-Link.com,2013-05-07 21:48:00,
2013-05-07 17:04:00,83.8,69.8,29.86,NNE,22,0.0,-999.0,63,-99.99,,,0.00,Acu-Link.com,2013-05-07 22:04:00,
2013-05-07 17:19:00,87.8,70.1,29.86,SW,225,0.0,-999.0,56,-99.99,,,0.00,Acu-Link.com,2013-05-07 22:19:00,
2013-05-07 17:34:00,86.0,70.0,29.85,West,270,0.0,-999.0,59,-99.99,,,0.00,Acu-Link.com,2013-05-07 22:34:00,
2013-05-07 17:49:00,85.6,68.6,29.85,West,270,0.0,-999.0,57,-99.99,,,0.00,Acu-Link.com,2013-05-07 22:49:00,
2013-05-07 18:04:00,88.7,69.3,29.85,NW,315,1.7,-999.0,53,-99.99,,,0.00,Acu-Link.com,2013-05-07 23:04:00,
2013-05-07 18:19:00,86.4,68.8,29.85,SSE,157,1.1,-999.0,56,-99.99,,,0.00,Acu-Link.com,2013-05-07 23:19:00,
2013-05-07 18:34:00,85.1,67.6,29.85,ESE,112,1.7,-999.0,56,-99.99,,,0.00,Acu-Link.com,2013-05-07 23:34:00,
2013-05-07 18:50:00,84.6,67.1,29.86,ESE,112,0.0,-999.0,56,-99.99,,,0.00,Acu-Link.com,2013-05-07 23:50:00,
2013-05-07 19:05:00,84.6,67.1,29.86,WNW,292,0.0,-999.0,56,-99.99,,,0.00,Acu-Link.com,2013-05-08 00:05:00,
2013-05-07 19:20:00,82.8,67.0,29.86,West,270,0.0,-999.0,59,-99.99,,,0.00,Acu-Link.com,2013-05-08 00:20:00,
2013-05-07 19:35:00,80.8,67.0,29.86,West,270,1.7,-999.0,63,-99.99,,,0.00,Acu-Link.com,2013-05-08 00:35:00,
2013-05-07 19:50:00,78.3,66.0,29.87,WSW,247,0.0,-999.0,66,-99.99,,,0.00,Acu-Link.com,2013-05-08 00:50:00,
2013-05-07 20:05:00,76.5,66.0,29.88,NE,45,0.0,-999.0,70,-99.99,,,0.00,Acu-Link.com,2013-05-08 01:05:00,
2013-05-07 20:21:00,74.5,66.4,29.87,South,180,0.0,-999.0,76,-99.99,,,0.00,Acu-Link.com,2013-05-08 01:21:00,
2013-05-07 20:36:00,73.4,66.1,29.88,South,180,0.0,-999.0,78,-99.99,,,0.00,Acu-Link.com,2013-05-08 01:36:00,
2013-05-07 20:51:00,72.1,65.2,29.88,South,180,0.0,-999.0,79,-99.99,,,0.00,Acu-Link.com,2013-05-08 01:51:00,
2013-05-07 21:06:00,71.1,65.3,29.89,South,180,0.0,-999.0,82,-99.99,,,0.00,Acu-Link.com,2013-05-08 02:06:00,
2013-05-07 21:21:00,69.8,67.4,29.90,South,180,3.2,-999.0,92,-99.99,,,0.00,Acu-Link.com,2013-05-08 02:21:00,
2013-05-07 21:36:00,70.0,68.2,29.91,SSW,202,2.7,-999.0,94,-99.99,,,0.00,Acu-Link.com,2013-05-08 02:36:00,
2013-05-07 21:51:00,69.6,68.1,29.91,South,180,0.0,-999.0,95,-99.99,,,0.00,Acu-Link.com,2013-05-08 02:51:00,
2013-05-07 22:06:00,68.9,68.0,29.91,South,180,0.0,-999.0,97,-99.99,,,0.00,Acu-Link.com,2013-05-08 03:06:00,
2013-05-07 22:22:00,68.4,67.8,29.91,South,180,0.0,-999.0,98,-99.99,,,0.00,Acu-Link.com,2013-05-08 03:22:00,
2013-05-07 22:37:00,67.6,67.0,29.92,South,180,0.0,-999.0,98,-99.99,,,0.00,Acu-Link.com,2013-05-08 03:37:00,
2013-05-07 22:52:00,67.1,66.5,29.92,SSW,202,0.0,-999.0,98,-99.99,,,0.00,Acu-Link.com,2013-05-08 03:52:00,
2013-05-07 23:07:00,66.9,66.3,29.92,South,180,0.0,-999.0,98,-99.99,,,0.00,Acu-Link.com,2013-05-08 04:07:00,
2013-05-07 23:22:00,66.4,65.8,29.93,South,180,0.0,-999.0,98,-99.99,,,0.00,Acu-Link.com,2013-05-08 04:22:00,
2013-05-07 23:37:00,66.4,65.8,29.93,SSE,157,0.0,-999.0,98,-99.99,,,0.00,Acu-Link.com,2013-05-08 04:37:00,
2013-05-07 23:52:00,65.8,65.2,29.94,South,180,0.0,-999.0,98,-99.99,,,0.00,Acu-Link.com,2013-05-08 04:52:00,